Time;durP1;ratioP1;P1;durP2;ratioP2;P2;SDS_P1;SDS_P2;PMS_P1;PMS_P2;Temp;Humidity;BMP_temperature;BMP_pressure;BME280_temperature;BME280_humidity;BME280_pressure;Samples;Min_cycle;Max_cycle;Signal;HPM_P1;HPM_P2
2023/11/04 00:00:34;;;;;;;1.10;1.10;;;;;;;14.37;100.00;95806.75;5025307;28;20073;-55
2023/11/04 00:03:21;;;;;;;1.10;1.10;;;;;;;14.22;100.00;95805.38;5025147;28;20053;-54
2023/11/04 00:05:48;;;;;;;1.20;1.20;;;;;;;14.64;100.00;95835.28;5025307;28;20064;-55
2023/11/04 00:08:15;;;;;;;1.02;1.02;;;;;;;14.47;100.00;95805.75;5025186;28;20306;-54
2023/11/04 00:10:42;;;;;;;1.10;1.10;;;;;;;14.73;100.00;95843.91;5024972;28;20496;-55
2023/11/04 00:13:09;;;;;;;1.38;1.38;;;;;;;14.75;100.00;95855.38;5006846;28;20045;-53
2023/11/04 00:15:36;;;;;;;1.30;1.30;;;;;;;14.60;100.00;95820.66;5007094;28;20056;-53
2023/11/04 00:18:02;;;;;;;1.48;1.48;;;;;;;15.01;99.58;95882.41;5024814;28;20053;-54
2023/11/04 00:20:29;;;;;;;1.20;1.20;;;;;;;14.81;98.50;95892.75;5024468;28;20550;-53
2023/11/04 00:23:11;;;;;;;1.15;1.15;;;;;;;14.54;99.04;95911.53;5025352;28;20050;-54
2023/11/04 00:25:38;;;;;;;1.13;1.13;;;;;;;14.45;100.00;95908.47;5024379;28;20061;-56
2023/11/04 00:28:04;;;;;;;1.20;1.20;;;;;;;14.34;100.00;95899.50;5024661;28;20062;-54
2023/11/04 00:30:31;;;;;;;1.20;1.20;;;;;;;14.41;100.00;95885.47;5024566;28;20057;-54
2023/11/04 00:32:58;;;;;;;1.17;1.17;;;;;;;13.97;100.00;95855.09;5024821;28;20054;-55
2023/11/04 00:35:25;;;;;;;1.05;1.05;;;;;;;14.02;100.00;95835.91;5024821;28;20045;-54
2023/11/04 00:37:52;;;;;;;1.10;1.10;;;;;;;14.26;100.00;95856.25;5006915;28;20053;-53
2023/11/04 00:40:19;;;;;;;1.30;1.30;;;;;;;14.40;100.00;95881.88;5024651;28;20067;-54
2023/11/04 00:42:46;;;;;;;1.20;1.20;;;;;;;14.56;100.00;95903.50;5007257;28;20064;-54
2023/11/04 00:45:13;;;;;;;1.20;1.20;;;;;;;14.57;100.00;95938.53;5024672;28;20053;-57
2023/11/04 00:47:39;;;;;;;1.10;1.10;;;;;;;14.19;100.00;95886.97;5024403;28;20083;-55
2023/11/04 00:50:06;;;;;;;1.10;1.10;;;;;;;14.41;100.00;95910.53;5023693;28;20053;-54
2023/11/04 00:52:45;;;;;;;1.10;1.10;;;;;;;14.23;100.00;95884.91;5024531;28;20057;-54
2023/11/04 00:55:13;;;;;;;1.10;1.10;;;;;;;14.23;100.00;95868.19;5024490;28;20072;-56
2023/11/04 00:57:40;;;;;;;1.17;1.17;;;;;;;14.34;100.00;95847.34;5024457;28;20140;-55
2023/11/04 01:00:07;;;;;;;1.10;1.10;;;;;;;14.32;100.00;95849.78;5012928;28;20057;-55
2023/11/04 01:02:34;;;;;;;1.10;1.10;;;;;;;14.05;100.00;95817.59;5024088;28;20053;-55
2023/11/04 01:05:01;;;;;;;1.17;1.17;;;;;;;14.22;100.00;95828.44;5013097;28;20630;-54
2023/11/04 01:07:28;;;;;;;1.20;1.20;;;;;;;14.19;100.00;95783.94;5006561;28;20053;-57
2023/11/04 01:09:56;;;;;;;1.20;1.20;;;;;;;14.50;100.00;95804.88;5006521;28;20056;-56
2023/11/04 01:12:23;;;;;;;1.13;1.13;;;;;;;14.29;100.00;95746.78;5006528;28;20054;-55
2023/11/04 01:14:50;;;;;;;1.00;1.00;;;;;;;14.56;100.00;95780.88;5006512;28;20160;-54
2023/11/04 01:17:17;;;;;;;1.17;1.17;;;;;;;14.59;100.00;95791.97;5024197;28;20148;-55
2023/11/04 01:19:44;;;;;;;1.17;1.17;;;;;;;14.76;100.00;95773.34;5023798;28;20132;-57
2023/11/04 01:22:11;;;;;;;1.40;1.40;;;;;;;14.69;100.00;95765.91;5024330;28;20053;-55
2023/11/04 01:24:41;;;;;;;1.15;1.15;;;;;;;14.72;100.00;95767.03;5023622;28;20504;-56
2023/11/04 01:27:09;;;;;;;1.20;1.20;;;;;;;14.75;100.00;95768.97;5002561;28;20513;-55
2023/11/04 01:29:36;;;;;;;1.17;1.17;;;;;;;14.43;100.00;95715.88;5003566;28;20103;-55
2023/11/04 01:32:05;;;;;;;1.25;1.25;;;;;;;14.83;100.00;95778.78;5004238;28;20505;-54
2023/11/04 01:34:32;;;;;;;1.30;1.30;;;;;;;14.96;100.00;95771.34;5003891;28;20541;-55
2023/11/04 01:36:59;;;;;;;1.20;1.20;;;;;;;14.87;100.00;95768.34;5004481;28;20045;-54
2023/11/04 01:39:26;;;;;;;1.23;1.23;;;;;;;14.82;100.00;95763.28;5004139;28;20053;-57
2023/11/04 01:41:53;;;;;;;1.13;1.13;;;;;;;14.93;100.00;95788.94;5004210;28;20054;-55
2023/11/04 01:44:19;;;;;;;1.23;1.23;;;;;;;14.97;100.00;95800.78;5003842;28;20053;-56
2023/11/04 01:46:46;;;;;;;1.20;1.20;;;;;;;14.95;100.00;95792.09;5004429;28;20056;-55
2023/11/04 01:49:13;;;;;;;1.15;1.15;;;;;;;14.71;100.00;95748.75;5004269;28;20054;-54
2023/11/04 01:51:40;;;;;;;1.23;1.23;;;;;;;14.92;100.00;95770.66;5004236;28;20062;-54
2023/11/04 01:54:08;;;;;;;1.20;1.20;;;;;;;14.75;100.00;95732.75;4967935;28;20484;-56
2023/11/04 01:56:39;;;;;;;1.20;1.20;;;;;;;14.82;100.00;95732.59;1648670;28;10002107;-55
2023/11/04 01:59:06;;;;;;;1.08;1.08;;;;;;;14.84;100.00;95693.94;4974452;28;20125;-55
2023/11/04 02:01:34;;;;;;;1.15;1.15;;;;;;;14.95;100.00;95714.03;5004195;28;20046;-57
2023/11/04 02:04:02;;;;;;;1.20;1.20;;;;;;;14.22;100.00;95583.34;5003833;28;20085;-57
2023/11/04 02:06:29;;;;;;;1.20;1.20;;;;;;;14.40;100.00;95583.03;5004290;28;20050;-58
2023/11/04 02:08:57;;;;;;;1.30;1.30;;;;;;;14.86;100.00;95653.25;5004250;28;20054;-54
2023/11/04 02:11:24;;;;;;;1.05;1.05;;;;;;;14.98;100.00;95637.88;5004116;28;20169;-55
2023/11/04 02:13:51;;;;;;;1.20;1.20;;;;;;;14.93;100.00;95650.31;5002845;28;20050;-54
2023/11/04 02:16:18;;;;;;;1.20;1.20;;;;;;;14.92;100.00;95634.03;5003851;28;20045;-58
2023/11/04 02:18:44;;;;;;;1.30;1.30;;;;;;;14.55;100.00;95642.78;5003986;28;20064;-55
2023/11/04 02:21:11;;;;;;;1.20;1.20;;;;;;;14.67;100.00;95648.50;5002544;28;20045;-54
2023/11/04 02:23:39;;;;;;;1.25;1.25;;;;;;;14.37;100.00;95629.22;5003900;28;20045;-54
2023/11/04 02:26:06;;;;;;;1.20;1.20;;;;;;;14.32;100.00;95598.31;5009751;28;20436;-55
2023/11/04 02:28:32;;;;;;;1.20;1.20;;;;;;;14.73;100.00;95668.28;5023409;28;20041;-55
2023/11/04 02:30:59;;;;;;;1.20;1.20;;;;;;;14.59;100.00;95613.63;5022870;28;20057;-55
2023/11/04 02:33:26;;;;;;;1.10;1.10;;;;;;;14.76;100.00;95647.91;5023584;28;20053;-54
2023/11/04 02:35:53;;;;;;;1.20;1.20;;;;;;;14.64;100.00;95643.00;5023008;28;20513;-57
2023/11/04 02:38:19;;;;;;;1.20;1.20;;;;;;;14.79;100.00;95672.16;5026474;28;20049;-55
2023/11/04 02:40:46;;;;;;;1.15;1.15;;;;;;;14.83;100.00;95686.78;5026923;28;20052;-56
2023/11/04 02:43:13;;;;;;;1.20;1.20;;;;;;;14.76;100.00;95675.78;5009181;28;20108;-54
2023/11/04 02:45:40;;;;;;;1.20;1.20;;;;;;;14.17;100.00;95616.47;5009065;28;20049;-54
2023/11/04 02:48:06;;;;;;;1.20;1.20;;;;;;;14.22;100.00;95666.91;5027025;28;20072;-55
2023/11/04 02:50:33;;;;;;;1.20;1.20;;;;;;;14.38;100.00;95667.03;5026555;28;20489;-56
2023/11/04 02:53:00;;;;;;;1.10;1.10;;;;;;;14.49;100.00;95672.38;5027042;28;20318;-55
2023/11/04 02:55:27;;;;;;;1.10;1.10;;;;;;;14.50;100.00;95677.50;5026369;28;20428;-55
2023/11/04 02:57:53;;;;;;;1.05;1.05;;;;;;;14.74;100.00;95689.38;5026935;28;20046;-55
2023/11/04 03:00:20;;;;;;;1.30;1.30;;;;;;;14.80;100.00;95684.84;5026461;28;20132;-54
2023/11/04 03:02:47;;;;;;;1.10;1.10;;;;;;;14.44;100.00;95625.50;5026524;28;20343;-55
2023/11/04 03:05:15;;;;;;;1.20;1.20;;;;;;;14.68;100.00;95649.28;5026888;28;20072;-54
2023/11/04 03:07:57;;;;;;;;;;;;;;;14.85;100.00;95656.47;5027006;28;20144;-54
2023/11/04 03:10:24;;;;;;;1.10;1.10;;;;;;;14.64;100.00;95654.94;5026228;28;19925;-54
2023/11/04 03:12:51;;;;;;;1.10;1.10;;;;;;;14.69;100.00;95648.84;5008763;28;20047;-54
2023/11/04 03:15:17;;;;;;;1.20;1.20;;;;;;;14.77;100.00;95647.47;5025800;28;20056;-55
2023/11/04 03:17:44;;;;;;;1.20;1.20;;;;;;;14.91;100.00;95657.53;5008339;28;20053;-54
2023/11/04 03:20:11;;;;;;;1.20;1.20;;;;;;;14.81;100.00;95648.19;5026125;28;20110;-54
2023/11/04 03:22:38;;;;;;;1.20;1.20;;;;;;;14.71;100.00;95660.38;5025907;28;20538;-54
2023/11/04 03:25:05;;;;;;;1.30;1.30;;;;;;;14.39;100.00;95631.56;5025840;28;20058;-58
2023/11/04 03:27:31;;;;;;;1.25;1.25;;;;;;;14.56;100.00;95636.78;5025851;28;20057;-55
2023/11/04 03:30:00;;;;;;;1.20;1.20;;;;;;;14.66;100.00;95663.66;5025815;28;20057;-55
2023/11/04 03:32:26;;;;;;;1.23;1.23;;;;;;;14.62;100.00;95656.59;5026768;28;20056;-55
2023/11/04 03:34:53;;;;;;;1.20;1.20;;;;;;;14.75;100.00;95674.19;5025843;28;20128;-57
2023/11/04 03:37:20;;;;;;;1.23;1.23;;;;;;;14.66;100.00;95654.50;5026009;28;20053;-55
2023/11/04 03:39:46;;;;;;;1.10;1.10;;;;;;;14.86;100.00;95669.19;5025775;28;20053;-56
2023/11/04 03:42:13;;;;;;;1.30;1.30;;;;;;;14.82;100.00;95660.91;5008063;28;20060;-56
2023/11/04 03:44:40;;;;;;;1.20;1.20;;;;;;;14.94;100.00;95642.72;5025412;28;20076;-54
2023/11/04 03:47:07;;;;;;;1.10;1.10;;;;;;;14.86;100.00;95677.56;5025636;28;20484;-55
2023/11/04 03:49:34;;;;;;;1.20;1.20;;;;;;;14.94;100.00;95667.81;5025760;28;20168;-55
2023/11/04 03:52:01;;;;;;;1.40;1.40;;;;;;;15.03;100.00;95654.09;5025448;28;20053;-55
2023/11/04 03:54:29;;;;;;;1.30;1.30;;;;;;;15.03;100.00;95654.09;5007571;28;20304;-55
2023/11/04 03:56:56;;;;;;;1.30;1.30;;;;;;;15.08;100.00;95656.34;5007415;28;20487;-55
2023/11/04 03:59:23;;;;;;;1.25;1.25;;;;;;;14.96;100.00;95649.44;5025312;28;20054;-54
2023/11/04 04:01:49;;;;;;;1.25;1.25;;;;;;;14.66;100.00;95657.28;5025675;28;20053;-54
2023/11/04 04:04:18;;;;;;;1.23;1.23;;;;;;;14.56;100.00;95666.63;5025429;28;20057;-57
2023/11/04 04:06:45;;;;;;;1.10;1.10;;;;;;;14.33;100.00;95622.16;5007790;28;20536;-54
2023/11/04 04:09:12;;;;;;;1.10;1.10;;;;;;;14.65;100.00;95658.50;5025149;28;20508;-54
2023/11/04 04:11:38;;;;;;;1.10;1.10;;;;;;;14.60;100.00;95698.03;5025183;28;20053;-58
2023/11/04 04:14:05;;;;;;;1.20;1.20;;;;;;;14.59;100.00;95646.31;5025154;28;20143;-55
2023/11/04 04:16:32;;;;;;;1.10;1.10;;;;;;;14.48;100.00;95629.03;5025607;28;20060;-55
2023/11/04 04:18:58;;;;;;;1.20;1.20;;;;;;;14.60;100.00;95633.94;5024803;28;20542;-54
2023/11/04 04:21:25;;;;;;;1.20;1.20;;;;;;;14.62;100.00;95631.50;5007241;28;20045;-55
2023/11/04 04:23:52;;;;;;;1.20;1.20;;;;;;;14.65;100.00;95655.72;5025159;28;20053;-57
2023/11/04 04:26:20;;;;;;;1.20;1.20;;;;;;;14.66;100.00;95646.13;5024398;28;20080;-55
2023/11/04 04:28:47;;;;;;;1.15;1.15;;;;;;;14.77;100.00;95641.13;5024686;28;20089;-54
2023/11/04 04:31:14;;;;;;;1.20;1.20;;;;;;;14.84;100.00;95638.19;5024704;28;20064;-55
2023/11/04 04:33:41;;;;;;;1.25;1.25;;;;;;;14.85;100.00;95636.97;5024601;28;20056;-55
2023/11/04 04:36:09;;;;;;;1.30;1.30;;;;;;;14.91;100.00;95649.16;5024624;28;20083;-55
2023/11/04 04:38:36;;;;;;;1.15;1.15;;;;;;;14.88;100.00;95641.66;5024389;28;20057;-55
2023/11/04 04:41:03;;;;;;;1.30;1.30;;;;;;;14.87;100.00;95657.59;5006380;28;20080;-55
2023/11/04 04:43:30;;;;;;;1.20;1.20;;;;;;;14.89;100.00;95641.22;5006783;28;20049;-56
2023/11/04 04:45:57;;;;;;;1.25;1.25;;;;;;;14.62;100.00;95595.28;5024777;28;20053;-54
2023/11/04 04:48:26;;;;;;;1.10;1.10;;;;;;;14.48;100.00;95613.06;5024720;28;20053;-55
2023/11/04 04:50:52;;;;;;;1.20;1.20;;;;;;;14.72;100.00;95605.38;5024313;28;20057;-56
2023/11/04 04:53:19;;;;;;;1.27;1.27;;;;;;;14.82;100.00;95605.16;5024120;28;20496;-56
2023/11/04 04:55:46;;;;;;;1.23;1.23;;;;;;;14.84;100.00;95638.19;5024135;28;20056;-56
2023/11/04 04:58:13;;;;;;;1.30;1.30;;;;;;;14.93;100.00;95610.50;5024224;28;20132;-55
2023/11/04 05:00:40;;;;;;;1.30;1.30;;;;;;;14.95;100.00;95619.22;5023785;28;20046;-56
2023/11/04 05:03:06;;;;;;;1.30;1.30;;;;;;;14.99;100.00;95622.69;5024206;28;20524;-55
2023/11/04 05:05:34;;;;;;;1.27;1.27;;;;;;;14.97;100.00;95627.91;5024325;28;20168;-55
2023/11/04 05:08:00;;;;;;;1.30;1.30;;;;;;;14.90;100.00;95616.94;5023820;28;20080;-53
2023/11/04 05:10:27;;;;;;;1.40;1.40;;;;;;;15.08;100.00;95650.75;5006114;28;20141;-55
2023/11/04 05:12:54;;;;;;;1.40;1.40;;;;;;;14.91;100.00;95696.56;5023814;28;20527;-53
2023/11/04 05:15:21;;;;;;;1.20;1.20;;;;;;;14.88;100.00;95683.50;5006030;28;20512;-55
2023/11/04 05:17:48;;;;;;;1.40;1.40;;;;;;;14.88;100.00;95680.69;5024211;28;20170;-56
2023/11/04 05:20:15;;;;;;;1.00;1.00;;;;;;;14.84;100.00;95677.22;5023945;28;20049;-54
2023/11/04 05:22:42;;;;;;;1.20;1.20;;;;;;;14.96;100.00;95684.91;5005983;28;20046;-54
2023/11/04 05:25:09;;;;;;;1.30;1.30;;;;;;;15.04;100.00;95700.28;5006296;28;20045;-54
2023/11/04 05:27:36;;;;;;;1.40;1.40;;;;;;;14.79;100.00;95633.13;5023591;28;20061;-54
2023/11/04 05:30:06;;;;;;;1.30;1.30;;;;;;;15.06;100.00;95609.38;5005975;28;20049;-55
2023/11/04 05:32:33;;;;;;;1.10;1.10;;;;;;;14.75;100.00;95562.72;5005818;28;20057;-54
2023/11/04 05:35:00;;;;;;;1.30;1.30;;;;;;;14.74;100.00;95503.41;5022672;28;20049;-56
2023/11/04 05:37:26;;;;;;;1.10;1.10;;;;;;;14.79;100.00;95488.16;5023059;28;20054;-54
2023/11/04 05:39:53;;;;;;;1.17;1.17;;;;;;;14.40;100.00;95438.16;5022572;28;20046;-55
2023/11/04 05:42:20;;;;;;;1.17;1.17;;;;;;;12.58;100.00;95175.97;5022958;28;20061;-54
2023/11/04 05:44:47;;;;;;;1.27;1.27;;;;;;;14.69;100.00;95517.06;5022748;28;20049;-57
2023/11/04 05:47:14;;;;;;;1.25;1.25;;;;;;;14.72;100.00;95511.41;5023090;28;20056;-55
2023/11/04 05:49:41;;;;;;;1.20;1.20;;;;;;;14.95;100.00;95514.03;5005651;28;20053;-55
2023/11/04 05:52:08;;;;;;;1.20;1.20;;;;;;;14.24;100.00;95441.69;5023577;28;20049;-56
2023/11/04 05:54:34;;;;;;;1.23;1.23;;;;;;;14.91;100.00;95532.84;5023641;28;20523;-54
2023/11/04 05:57:01;;;;;;;1.30;1.30;;;;;;;15.01;100.00;95520.69;5023685;28;20049;-55
2023/11/04 05:59:28;;;;;;;1.40;1.40;;;;;;;14.80;100.00;95461.84;5005677;28;20056;-57
2023/11/04 06:01:54;;;;;;;1.27;1.27;;;;;;;15.27;100.00;95523.63;5023788;28;20538;-55
2023/11/04 06:04:21;;;;;;;1.30;1.30;;;;;;;15.03;100.00;95529.38;5023302;28;20049;-55
2023/11/04 06:06:48;;;;;;;1.20;1.20;;;;;;;15.06;100.00;95547.25;5023679;28;20164;-54
2023/11/04 06:09:16;;;;;;;1.20;1.20;;;;;;;15.08;100.00;95555.94;5023110;28;20143;-55
2023/11/04 06:11:43;;;;;;;1.30;1.30;;;;;;;15.12;100.00;95559.44;5023921;28;20676;-55
2023/11/04 06:14:10;;;;;;;1.33;1.33;;;;;;;15.17;100.00;95554.13;5027023;28;20045;-54
2023/11/04 06:16:37;;;;;;;1.25;1.25;;;;;;;15.01;100.00;95533.81;5018069;28;20802;-56
2023/11/04 06:19:05;;;;;;;1.20;1.20;;;;;;;15.16;100.00;95552.56;5027384;28;20054;-54
2023/11/04 06:21:32;;;;;;;1.38;1.38;;;;;;;15.27;100.00;95535.53;5025645;28;20089;-55
2023/11/04 06:23:59;;;;;;;1.35;1.35;;;;;;;15.33;100.00;95511.50;5026959;28;20049;-57
2023/11/04 06:26:26;;;;;;;1.10;1.10;;;;;;;15.00;100.00;95515.53;5026661;28;20065;-54
2023/11/04 06:28:52;;;;;;;1.33;1.33;;;;;;;14.96;100.00;95507.25;5026722;28;20049;-55
2023/11/04 06:31:21;;;;;;;1.40;1.40;;;;;;;14.79;100.00;95460.28;5025327;28;20057;-55
2023/11/04 06:33:48;;;;;;;1.25;1.25;;;;;;;15.25;100.00;95479.44;5026870;28;20140;-54
2023/11/04 06:36:15;;;;;;;1.30;1.30;;;;;;;15.24;100.00;95472.25;5026805;28;20050;-56
2023/11/04 06:38:42;;;;;;;1.20;1.20;;;;;;;15.27;100.00;95457.44;5009968;28;20045;-54
2023/11/04 06:41:16;;;;;;;1.30;1.30;;;;;;;14.95;100.00;95430.38;5006844;28;20056;-56
2023/11/04 06:43:44;;;;;;;1.30;1.30;;;;;;;14.97;100.00;95427.16;5007215;28;20051;-55
2023/11/04 06:46:14;;;;;;;1.35;1.35;;;;;;;15.26;100.00;95441.94;5006784;28;20057;-56
2023/11/04 06:48:42;;;;;;;1.13;1.13;;;;;;;14.91;100.00;95452.00;5007122;28;20441;-56
2023/11/04 06:51:09;;;;;;;1.20;1.20;;;;;;;15.14;100.00;95459.41;5006832;28;20141;-55
2023/11/04 06:53:36;;;;;;;1.40;1.40;;;;;;;15.35;100.00;95464.41;5006449;28;20054;-56
2023/11/04 06:56:03;;;;;;;1.30;1.30;;;;;;;15.42;100.00;95464.25;5006396;28;20053;-55
2023/11/04 06:58:30;;;;;;;1.20;1.20;;;;;;;15.36;100.00;95462.41;5006374;28;20454;-54
2023/11/04 07:00:57;;;;;;;1.23;1.23;;;;;;;15.47;100.00;95477.66;5006695;28;20056;-55
2023/11/04 07:03:24;;;;;;;1.40;1.40;;;;;;;15.49;100.00;95458.44;5006154;28;20060;-54
2023/11/04 07:05:51;;;;;;;1.40;1.40;;;;;;;15.56;100.00;95488.97;5005513;28;20058;-54
2023/11/04 07:08:17;;;;;;;1.48;1.48;;;;;;;15.62;100.00;95483.63;5006493;28;20065;-54
2023/11/04 07:10:45;;;;;;;1.30;1.30;;;;;;;15.50;100.00;95465.63;5006467;28;20050;-55
2023/11/04 07:13:12;;;;;;;1.27;1.27;;;;;;;15.03;100.00;95437.34;5005984;28;20050;-54
2023/11/04 07:15:45;;;;;;;1.30;1.30;;;;;;;15.23;100.00;95470.69;5004745;28;20151;-57
2023/11/04 07:18:13;;;;;;;1.30;1.30;;;;;;;15.57;100.00;95489.75;5000412;28;20077;-57
2023/11/04 07:20:41;;;;;;;1.33;1.33;;;;;;;15.15;100.00;95399.59;4999374;28;20064;-59
2023/11/04 07:23:07;;;;;;;1.40;1.40;;;;;;;15.38;100.00;95429.25;5002665;28;20061;-66
2023/11/04 07:25:35;;;;;;;1.33;1.33;;;;;;;15.49;100.00;95458.44;5006077;28;20053;-65
2023/11/04 07:28:02;;;;;;;1.35;1.35;;;;;;;15.62;100.00;95523.50;5003075;28;20569;-54
2023/11/04 07:30:29;;;;;;;1.40;1.40;;;;;;;15.35;100.00;95435.72;5005666;28;20076;-58
2023/11/04 07:32:56;;;;;;;1.40;1.40;;;;;;;15.01;100.00;95450.16;5005879;28;20497;-63
2023/11/04 07:35:23;;;;;;;1.42;1.42;;;;;;;15.26;100.00;95550.72;5001098;28;20164;-58
2023/11/04 07:37:50;;;;;;;1.50;1.50;;;;;;;15.07;100.00;95583.06;5005960;28;20064;-59
2023/11/04 07:40:17;;;;;;;1.20;1.20;;;;;;;14.67;100.00;95548.16;4994748;28;20058;-60
2023/11/04 07:42:44;;;;;;;1.40;1.40;;;;;;;14.48;100.00;95556.59;5014627;28;20101;-61
2023/11/04 07:45:11;;;;;;;1.30;1.30;;;;;;;14.67;100.00;95580.81;5004276;28;20346;-61
2023/11/04 07:47:39;;;;;;;1.08;1.08;;;;;;;14.69;100.00;95573.59;5005179;28;20859;-62
2023/11/04 07:50:08;;;;;;;1.13;1.13;;;;;;;14.48;100.00;95456.28;5004365;28;20156;-63
2023/11/04 07:52:35;;;;;;;1.15;1.15;;;;;;;14.38;100.00;95476.81;4996329;28;20057;-57
2023/11/04 07:55:14;;;;;;;1.20;1.20;;;;;;;14.57;100.00;95498.25;4995615;28;20141;-65
2023/11/04 07:57:42;;;;;;;1.30;1.30;;;;;;;14.72;100.00;95533.72;5004239;28;20054;-65
2023/11/04 08:00:10;;;;;;;1.20;1.20;;;;;;;14.11;100.00;95456.69;5004178;28;20058;-66
2023/11/04 08:02:37;;;;;;;1.23;1.23;;;;;;;14.75;100.00;95493.03;5002133;28;20066;-62
2023/11/04 08:05:05;;;;;;;1.30;1.30;;;;;;;15.10;100.00;95441.97;5004708;28;20547;-61
2023/11/04 08:07:32;;;;;;;1.20;1.20;;;;;;;15.05;100.00;95456.41;5002982;28;20069;-66
2023/11/04 08:09:59;;;;;;;1.27;1.27;;;;;;;15.44;100.00;95461.00;5004152;28;20061;-65
2023/11/04 08:12:25;;;;;;;1.38;1.38;;;;;;;15.63;100.00;95443.34;5002364;28;20056;-67
2023/11/04 08:14:52;;;;;;;1.30;1.30;;;;;;;15.52;100.00;95368.28;5004867;28;20060;-57
2023/11/04 08:17:19;;;;;;;1.50;1.50;;;;;;;15.84;100.00;95396.03;5004700;28;20061;-62
2023/11/04 08:19:46;;;;;;;1.30;1.30;;;;;;;15.63;100.00;95340.84;5004165;28;20054;-60
2023/11/04 08:22:14;;;;;;;1.45;1.45;;;;;;;16.10;100.00;95413.63;5000014;28;20456;-66
2023/11/04 08:24:42;;;;;;;1.40;1.40;;;;;;;16.04;100.00;95377.09;5003796;28;20054;-59
2023/11/04 08:27:09;;;;;;;1.30;1.30;;;;;;;16.31;100.00;95396.97;5001715;28;20054;-60
2023/11/04 08:29:36;;;;;;;1.30;1.30;;;;;;;15.73;100.00;95306.25;5004319;28;20053;-61
2023/11/04 08:32:03;;;;;;;1.40;1.40;;;;;;;16.02;100.00;95346.03;4999805;28;20053;-58
2023/11/04 08:34:30;;;;;;;1.35;1.35;;;;;;;16.43;100.00;95370.25;5003076;28;20053;-62
2023/11/04 08:36:57;;;;;;;1.50;1.50;;;;;;;16.47;100.00;95399.66;4999365;28;20057;-64
2023/11/04 08:39:24;;;;;;;1.40;1.40;;;;;;;15.94;100.00;95260.91;4998371;28;20050;-60
2023/11/04 08:41:51;;;;;;;1.35;1.35;;;;;;;16.57;100.00;95325.88;4993672;28;20069;-69
2023/11/04 08:44:19;;;;;;;1.55;1.55;;;;;;;16.36;100.00;95326.53;5004415;28;20553;-67
2023/11/04 08:46:46;;;;;;;1.60;1.60;;;;;;;16.22;100.00;95303.88;5003075;28;20499;-70
2023/11/04 08:49:13;;;;;;;1.30;1.30;;;;;;;16.54;100.00;95332.38;5002179;28;20049;-70
2023/11/04 08:51:40;;;;;;;1.20;1.20;;;;;;;14.29;100.00;95059.63;5000493;28;20113;-60
2023/11/04 08:54:09;;;;;;;1.50;1.50;;;;;;;16.23;100.00;95356.50;4982759;28;20500;-60
2023/11/04 08:56:36;;;;;;;1.40;1.40;;;;;;;14.76;100.00;95154.56;4990736;28;20053;-66
2023/11/04 08:59:03;;;;;;;1.33;1.33;;;;;;;16.18;100.00;95343.13;5001743;28;20078;-63
2023/11/04 09:01:30;;;;;;;1.20;1.20;;;;;;;15.91;100.00;95351.16;5001130;28;20493;-59
2023/11/04 09:03:57;;;;;;;1.30;1.30;;;;;;;15.43;100.00;95303.97;5011155;28;20128;-58
2023/11/04 09:06:30;;;;;;;1.45;1.45;;;;;;;14.18;100.00;95141.91;4995608;28;20584;-67
2023/11/04 09:08:59;;;;;;;1.27;1.27;;;;;;;15.69;100.00;95338.28;5001913;28;20572;-60
2023/11/04 09:11:26;;;;;;;1.20;1.20;;;;;;;15.76;100.00;95324.88;5002604;28;20124;-58
2023/11/04 09:13:53;;;;;;;1.27;1.27;;;;;;;15.53;100.00;95300.09;5003401;28;20521;-61
2023/11/04 09:16:20;;;;;;;1.27;1.27;;;;;;;15.80;100.00;95272.53;5002897;28;20410;-68
2023/11/04 09:18:47;;;;;;;1.38;1.38;;;;;;;15.49;100.00;95246.38;5003416;28;20317;-60
2023/11/04 09:21:14;;;;;;;1.30;1.30;;;;;;;13.34;100.00;94867.59;5001210;28;20074;-62
2023/11/04 09:23:41;;;;;;;1.27;1.27;;;;;;;14.91;100.00;95074.88;5000044;28;20061;-68
2023/11/04 09:26:10;;;;;;;1.20;1.20;;;;;;;15.54;100.00;95141.81;5001934;28;20743;-59
2023/11/04 09:28:38;;;;;;;1.38;1.38;;;;;;;15.24;100.00;95134.75;5000525;28;20136;-66
2023/11/04 09:31:05;;;;;;;1.10;1.10;;;;;;;13.89;100.00;94924.03;4997970;28;20436;-64
2023/11/04 09:33:34;;;;;;;1.30;1.30;;;;;;;15.43;100.00;95336.69;4988313;28;20157;-57
2023/11/04 09:36:02;;;;;;;1.23;1.23;;;;;;;15.25;100.00;95574.28;4984266;28;20090;-57
2023/11/04 13:36:52;;;;;;;0.80;0.80;;;;;;;18.98;100.00;95189.91;5141639;27;20776;-64
2023/11/04 13:39:21;;;;;;;0.80;0.80;;;;;;;17.99;99.00;95154.94;5141905;27;20138;-62
2023/11/04 13:41:48;;;;;;;0.70;0.70;;;;;;;17.26;98.16;95108.34;5141554;27;20047;-63
2023/11/04 13:44:15;;;;;;;0.70;0.70;;;;;;;17.29;100.00;95129.03;5141546;27;20050;-65
2023/11/04 13:46:42;;;;;;;0.70;0.70;;;;;;;16.91;100.00;95118.16;5139733;27;20046;-64
2023/11/04 13:49:09;;;;;;;0.70;0.70;;;;;;;17.04;100.00;95157.97;5142214;27;20050;-63
2023/11/04 13:51:38;;;;;;;0.70;0.70;;;;;;;17.02;100.00;95170.88;5142280;27;20055;-63
2023/11/04 13:54:05;;;;;;;0.70;0.70;;;;;;;16.83;100.00;95183.19;5142247;27;20063;-64
2023/11/04 13:56:33;;;;;;;0.65;0.65;;;;;;;16.76;100.00;95191.81;5140627;27;20506;-62
2023/11/04 13:58:59;;;;;;;0.63;0.63;;;;;;;16.86;100.00;95187.84;5142560;27;20047;-62
2023/11/04 14:01:30;;;;;;;0.70;0.70;;;;;;;17.10;100.00;95183.34;5141946;27;20134;-63
2023/11/04 14:03:57;;;;;;;0.70;0.70;;;;;;;16.91;100.00;95125.75;5142270;27;20491;-62
2023/11/04 14:06:25;;;;;;;0.70;0.70;;;;;;;17.28;100.00;95191.84;5140849;27;20050;-62
2023/11/04 14:08:51;;;;;;;0.70;0.70;;;;;;;17.30;100.00;95208.94;5142088;27;20134;-63
2023/11/04 14:11:18;;;;;;;0.70;0.70;;;;;;;17.08;100.00;95219.38;5140670;27;20050;-62
2023/11/04 14:13:45;;;;;;;0.65;0.65;;;;;;;17.05;100.00;95239.88;5141871;27;20054;-64
2023/11/04 14:16:15;;;;;;;0.70;0.70;;;;;;;16.91;100.00;95243.22;5141426;27;20104;-63
2023/11/04 14:18:42;;;;;;;0.70;0.70;;;;;;;16.86;100.00;95257.78;5142209;27;20051;-62
2023/11/04 14:21:09;;;;;;;0.70;0.70;;;;;;;16.91;100.00;95260.00;5141657;27;20478;-63
2023/11/04 14:23:36;;;;;;;0.60;0.60;;;;;;;16.86;100.00;95268.97;5134207;27;20073;-61
2023/11/04 14:26:04;;;;;;;0.60;0.60;;;;;;;16.85;100.00;95273.00;5120969;27;20087;-62
2023/11/04 14:28:32;;;;;;;0.70;0.70;;;;;;;16.38;100.00;95215.09;5119364;28;20433;-61
2023/11/04 14:30:58;;;;;;;0.70;0.70;;;;;;;16.75;100.00;95274.94;5120846;27;20460;-63
2023/11/04 14:33:26;;;;;;;0.70;0.70;;;;;;;16.70;100.00;95283.09;5120758;27;20137;-61
2023/11/04 14:35:53;;;;;;;0.70;0.70;;;;;;;16.59;100.00;95284.28;5116924;28;20189;-61
2023/11/04 14:38:20;;;;;;;0.70;0.70;;;;;;;16.28;100.00;95223.88;5107282;28;20055;-63
2023/11/04 14:40:47;;;;;;;0.70;0.70;;;;;;;16.52;100.00;95248.19;5107400;27;20048;-62
2023/11/04 14:43:14;;;;;;;0.63;0.63;;;;;;;16.48;100.00;95261.50;5105719;28;20048;-62
2023/11/04 14:45:40;;;;;;;0.60;0.60;;;;;;;16.20;100.00;95217.72;5105383;28;20047;-62
2023/11/04 14:48:08;;;;;;;0.68;0.68;;;;;;;16.34;100.00;95245.16;5106886;28;20154;-62
2023/11/04 14:50:38;;;;;;;0.60;0.60;;;;;;;15.89;100.00;95191.66;5106972;28;20047;-62
2023/11/04 14:53:05;;;;;;;0.70;0.70;;;;;;;16.29;100.00;95258.94;5107386;28;20051;-62
2023/11/04 14:55:32;;;;;;;0.60;0.60;;;;;;;16.10;100.00;95246.81;5106835;28;20040;-63
2023/11/04 14:57:58;;;;;;;0.60;0.60;;;;;;;16.15;100.00;95260.22;5107091;28;20130;-62
2023/11/04 15:00:25;;;;;;;0.70;0.70;;;;;;;16.03;100.00;95274.16;5105373;28;20060;-63
2023/11/04 15:02:52;;;;;;;0.70;0.70;;;;;;;15.68;100.00;95237.00;5105303;28;20513;-62
2023/11/04 15:05:19;;;;;;;0.70;0.70;;;;;;;15.92;100.00;95280.09;5105000;28;20063;-63
2023/11/04 15:07:46;;;;;;;0.60;0.60;;;;;;;15.86;100.00;95265.16;5106986;28;20048;-64
2023/11/04 15:10:13;;;;;;;0.60;0.60;;;;;;;15.68;100.00;95231.41;5106707;28;20058;-65
2023/11/04 15:12:40;;;;;;;0.60;0.60;;;;;;;15.80;100.00;95258.56;5106553;28;20446;-63
2023/11/04 15:15:07;;;;;;;0.60;0.60;;;;;;;15.22;100.00;95208.97;5104834;28;20130;-63
2023/11/04 15:17:33;;;;;;;0.70;0.70;;;;;;;15.47;100.00;95251.63;5106586;28;20442;-64
2023/11/04 15:20:01;;;;;;;0.60;0.60;;;;;;;15.25;100.00;95219.22;5104900;28;20043;-63
2023/11/04 15:22:28;;;;;;;0.60;0.60;;;;;;;15.21;100.00;95241.63;5104602;28;20054;-62
2023/11/04 15:24:55;;;;;;;0.65;0.65;;;;;;;15.05;100.00;95230.56;5123086;27;20138;-62